sensor_id;sensor_type;location;lat;lon;timestamp;pressure;altitude;pressure_sealevel;temperature;humidity
28701;BME280;15877;52.344;16.790;2023-02-01T00:00:19;99785.60;;;5.73;79.55
28701;BME280;15877;52.344;16.790;2023-02-01T00:03:12;99775.41;;;5.87;79.09
28701;BME280;15877;52.344;16.790;2023-02-01T00:05:53;99777.20;;;5.87;78.63
28701;BME280;15877;52.344;16.790;2023-02-01T00:08:26;99778.36;;;5.86;78.31
28701;BME280;15877;52.344;16.790;2023-02-01T00:11:03;99767.20;;;5.69;78.67
28701;BME280;15877;52.344;16.790;2023-02-01T00:13:37;99769.33;;;5.72;78.40
28701;BME280;15877;52.344;16.790;2023-02-01T00:16:11;99783.02;;;5.69;78.48
28701;BME280;15877;52.344;16.790;2023-02-01T00:18:46;99783.10;;;5.69;78.38
28701;BME280;15877;52.344;16.790;2023-02-01T00:21:20;99789.25;;;5.69;78.32
28701;BME280;15877;52.344;16.790;2023-02-01T00:23:53;99791.15;;;5.72;77.96
28701;BME280;15877;52.344;16.790;2023-02-01T00:26:32;99788.24;;;5.65;78.19
28701;BME280;15877;52.344;16.790;2023-02-01T00:29:06;99785.48;;;5.79;77.63
28701;BME280;15877;52.344;16.790;2023-02-01T00:31:41;99783.92;;;5.82;77.20
28701;BME280;15877;52.344;16.790;2023-02-01T00:34:15;99776.79;;;5.84;77.03
28701;BME280;15877;52.344;16.790;2023-02-01T00:36:48;99775.56;;;5.87;76.73
28701;BME280;15877;52.344;16.790;2023-02-01T00:39:21;99780.48;;;5.91;76.33
28701;BME280;15877;52.344;16.790;2023-02-01T00:41:53;99776.10;;;5.84;76.56
28701;BME280;15877;52.344;16.790;2023-02-01T00:44:26;99784.87;;;5.73;76.78
28701;BME280;15877;52.344;16.790;2023-02-01T00:46:59;99783.04;;;5.65;76.91
28701;BME280;15877;52.344;16.790;2023-02-01T00:49:31;99792.98;;;5.80;76.67
28701;BME280;15877;52.344;16.790;2023-02-01T00:52:05;99794.61;;;5.77;77.03
28701;BME280;15877;52.344;16.790;2023-02-01T00:54:40;99796.16;;;5.81;76.80
28701;BME280;15877;52.344;16.790;2023-02-01T00:57:12;99791.22;;;5.84;76.56
28701;BME280;15877;52.344;16.790;2023-02-01T00:59:45;99789.98;;;5.75;76.71
28701;BME280;15877;52.344;16.790;2023-02-01T01:02:18;99788.77;;;5.61;77.29
28701;BME280;15877;52.344;16.790;2023-02-01T01:04:51;99797.48;;;5.74;76.74
28701;BME280;15877;52.344;16.790;2023-02-01T01:07:24;99801.08;;;5.77;76.31
28701;BME280;15877;52.344;16.790;2023-02-01T01:09:56;99800.32;;;5.66;76.48
28701;BME280;15877;52.344;16.790;2023-02-01T01:12:28;99804.94;;;5.70;76.62
28701;BME280;15877;52.344;16.790;2023-02-01T01:15:01;99776.42;;;5.61;76.15
28701;BME280;15877;52.344;16.790;2023-02-01T01:17:34;99803.00;;;5.78;76.15
28701;BME280;15877;52.344;16.790;2023-02-01T01:20:08;99807.67;;;5.84;75.92
28701;BME280;15877;52.344;16.790;2023-02-01T01:22:40;99804.70;;;5.82;76.01
28701;BME280;15877;52.344;16.790;2023-02-01T01:25:13;99800.98;;;5.79;76.02
28701;BME280;15877;52.344;16.790;2023-02-01T01:27:46;99802.20;;;5.88;75.55
28701;BME280;15877;52.344;16.790;2023-02-01T01:30:19;99803.35;;;5.77;75.82
28701;BME280;15877;52.344;16.790;2023-02-01T01:32:53;99811.96;;;5.75;75.58
28701;BME280;15877;52.344;16.790;2023-02-01T01:35:26;99805.77;;;5.66;76.08
28701;BME280;15877;52.344;16.790;2023-02-01T01:38:01;99804.80;;;5.73;75.50
28701;BME280;15877;52.344;16.790;2023-02-01T01:40:34;99794.24;;;5.65;75.56
28701;BME280;15877;52.344;16.790;2023-02-01T01:43:14;99794.20;;;5.74;75.44
28701;BME280;15877;52.344;16.790;2023-02-01T01:45:48;99787.98;;;5.61;75.52
28701;BME280;15877;52.344;16.790;2023-02-01T01:48:23;99782.36;;;5.68;75.17
28701;BME280;15877;52.344;16.790;2023-02-01T01:51:00;99794.52;;;5.70;75.21
28701;BME280;15877;52.344;16.790;2023-02-01T01:53:40;99801.02;;;5.73;75.03
28701;BME280;15877;52.344;16.790;2023-02-01T01:56:16;99790.63;;;5.75;74.71
28701;BME280;15877;52.344;16.790;2023-02-01T01:58:49;99789.17;;;5.72;74.56
28701;BME280;15877;52.344;16.790;2023-02-01T02:01:21;99784.48;;;5.73;74.41
28701;BME280;15877;52.344;16.790;2023-02-01T02:03:54;99788.58;;;5.76;74.17
28701;BME280;15877;52.344;16.790;2023-02-01T02:06:39;99786.75;;;5.75;73.99
28701;BME280;15877;52.344;16.790;2023-02-01T02:09:13;99796.40;;;5.77;73.67
28701;BME280;15877;52.344;16.790;2023-02-01T02:11:46;99801.48;;;5.65;73.94
28701;BME280;15877;52.344;16.790;2023-02-01T02:14:20;99791.71;;;5.55;74.56
28701;BME280;15877;52.344;16.790;2023-02-01T02:17:01;99789.17;;;5.60;74.52
28701;BME280;15877;52.344;16.790;2023-02-01T02:20:30;99792.46;;;5.69;74.16
28701;BME280;15877;52.344;16.790;2023-02-01T02:23:28;99781.77;;;5.67;73.85
28701;BME280;15877;52.344;16.790;2023-02-01T02:26:35;99788.92;;;5.81;73.46
28701;BME280;15877;52.344;16.790;2023-02-01T02:29:41;99789.86;;;5.72;73.51
28701;BME280;15877;52.344;16.790;2023-02-01T02:32:39;99793.06;;;5.68;73.50
28701;BME280;15877;52.344;16.790;2023-02-01T02:35:25;99807.14;;;5.72;73.66
28701;BME280;15877;52.344;16.790;2023-02-01T02:38:08;99796.56;;;5.74;73.62
28701;BME280;15877;52.344;16.790;2023-02-01T02:40:49;99794.39;;;5.82;73.30
28701;BME280;15877;52.344;16.790;2023-02-01T02:43:32;99798.71;;;5.87;73.11
28701;BME280;15877;52.344;16.790;2023-02-01T02:46:27;99794.16;;;5.82;73.27
28701;BME280;15877;52.344;16.790;2023-02-01T02:49:24;99792.55;;;5.89;73.18
28701;BME280;15877;52.344;16.790;2023-02-01T02:52:04;99796.22;;;5.88;73.19
28701;BME280;15877;52.344;16.790;2023-02-01T02:54:57;99789.71;;;5.96;72.69
28701;BME280;15877;52.344;16.790;2023-02-01T02:57:36;99789.13;;;5.88;72.88
28701;BME280;15877;52.344;16.790;2023-02-01T03:00:30;99781.02;;;5.83;73.07
28701;BME280;15877;52.344;16.790;2023-02-01T03:03:22;99777.97;;;5.78;73.25
28701;BME280;15877;52.344;16.790;2023-02-01T03:06:15;99779.40;;;5.96;72.39
28701;BME280;15877;52.344;16.790;2023-02-01T03:08:55;99780.00;;;5.96;72.40
28701;BME280;15877;52.344;16.790;2023-02-01T03:11:31;99782.41;;;5.90;72.49
28701;BME280;15877;52.344;16.790;2023-02-01T03:14:21;99779.53;;;5.96;72.50
28701;BME280;15877;52.344;16.790;2023-02-01T03:16:59;99776.86;;;5.88;72.61
28701;BME280;15877;52.344;16.790;2023-02-01T03:19:37;99778.08;;;5.95;72.53
28701;BME280;15877;52.344;16.790;2023-02-01T03:22:16;99774.05;;;5.92;72.61
28701;BME280;15877;52.344;16.790;2023-02-01T03:24:53;99775.27;;;5.90;72.77
28701;BME280;15877;52.344;16.790;2023-02-01T03:27:32;99772.34;;;5.93;72.75
28701;BME280;15877;52.344;16.790;2023-02-01T03:30:09;99777.06;;;5.98;72.77
28701;BME280;15877;52.344;16.790;2023-02-01T03:32:44;99769.14;;;5.91;73.01
28701;BME280;15877;52.344;16.790;2023-02-01T03:35:42;99770.71;;;5.85;73.28
28701;BME280;15877;52.344;16.790;2023-02-01T03:38:22;99765.61;;;5.74;73.70
28701;BME280;15877;52.344;16.790;2023-02-01T03:41:01;99765.20;;;5.78;73.64
28701;BME280;15877;52.344;16.790;2023-02-01T03:43:41;99762.95;;;5.84;73.53
28701;BME280;15877;52.344;16.790;2023-02-01T03:46:20;99768.73;;;5.80;73.67
28701;BME280;15877;52.344;16.790;2023-02-01T03:48:56;99776.00;;;5.88;73.32
28701;BME280;15877;52.344;16.790;2023-02-01T03:51:30;99771.09;;;5.85;73.59
28701;BME280;15877;52.344;16.790;2023-02-01T03:54:07;99774.64;;;5.83;73.42
28701;BME280;15877;52.344;16.790;2023-02-01T03:56:44;99762.31;;;5.87;73.51
28701;BME280;15877;52.344;16.790;2023-02-01T03:59:18;99761.14;;;5.89;73.24
28701;BME280;15877;52.344;16.790;2023-02-01T04:01:51;99756.14;;;5.90;73.08
28701;BME280;15877;52.344;16.790;2023-02-01T04:04:23;99755.44;;;5.86;73.04
28701;BME280;15877;52.344;16.790;2023-02-01T04:06:57;99751.32;;;5.75;73.22
28701;BME280;15877;52.344;16.790;2023-02-01T04:09:29;99748.35;;;5.86;73.06
28701;BME280;15877;52.344;16.790;2023-02-01T04:12:02;99759.30;;;5.88;72.70
28701;BME280;15877;52.344;16.790;2023-02-01T04:14:36;99757.02;;;5.87;72.53
28701;BME280;15877;52.344;16.790;2023-02-01T04:17:09;99755.35;;;5.91;72.23
28701;BME280;15877;52.344;16.790;2023-02-01T04:19:43;99759.45;;;5.83;72.14
28701;BME280;15877;52.344;16.790;2023-02-01T04:22:15;99756.61;;;5.88;72.11
28701;BME280;15877;52.344;16.790;2023-02-01T04:24:48;99754.70;;;5.96;71.63
28701;BME280;15877;52.344;16.790;2023-02-01T04:27:21;99747.38;;;5.82;71.83
28701;BME280;15877;52.344;16.790;2023-02-01T04:29:53;99740.85;;;5.93;71.78
28701;BME280;15877;52.344;16.790;2023-02-01T04:32:28;99764.11;;;5.81;71.76
28701;BME280;15877;52.344;16.790;2023-02-01T04:35:01;99736.04;;;5.79;71.87
28701;BME280;15877;52.344;16.790;2023-02-01T04:37:34;99744.79;;;5.93;71.66
28701;BME280;15877;52.344;16.790;2023-02-01T04:40:09;99750.95;;;5.86;71.77
28701;BME280;15877;52.344;16.790;2023-02-01T04:42:42;99753.17;;;5.99;71.41
28701;BME280;15877;52.344;16.790;2023-02-01T04:45:15;99755.00;;;5.99;71.11
28701;BME280;15877;52.344;16.790;2023-02-01T04:47:50;99753.51;;;5.95;71.47
28701;BME280;15877;52.344;16.790;2023-02-01T04:50:23;99749.96;;;5.89;71.91
28701;BME280;15877;52.344;16.790;2023-02-01T04:52:55;99746.59;;;6.00;71.44
28701;BME280;15877;52.344;16.790;2023-02-01T04:55:28;99745.23;;;6.05;71.29
28701;BME280;15877;52.344;16.790;2023-02-01T04:58:01;99745.23;;;5.94;71.44
28701;BME280;15877;52.344;16.790;2023-02-01T05:00:34;99750.56;;;6.02;71.12
28701;BME280;15877;52.344;16.790;2023-02-01T05:03:06;99739.17;;;5.90;71.15
28701;BME280;15877;52.344;16.790;2023-02-01T05:05:39;99749.45;;;5.95;71.26
28701;BME280;15877;52.344;16.790;2023-02-01T05:08:11;99750.36;;;5.84;71.45
28701;BME280;15877;52.344;16.790;2023-02-01T05:10:46;99753.70;;;6.01;71.41
28701;BME280;15877;52.344;16.790;2023-02-01T05:13:19;99752.41;;;6.06;70.96
28701;BME280;15877;52.344;16.790;2023-02-01T05:16:09;99752.94;;;6.05;71.09
28701;BME280;15877;52.344;16.790;2023-02-01T05:18:41;99749.14;;;6.04;71.21
28701;BME280;15877;52.344;16.790;2023-02-01T05:21:14;99748.11;;;6.01;71.43
28701;BME280;15877;52.344;16.790;2023-02-01T05:23:46;99739.95;;;6.13;71.16
28701;BME280;15877;52.344;16.790;2023-02-01T05:26:37;99751.14;;;6.10;71.43
28701;BME280;15877;52.344;16.790;2023-02-01T05:29:10;99753.29;;;6.03;71.55
28701;BME280;15877;52.344;16.790;2023-02-01T05:31:45;99744.39;;;6.23;71.28
28701;BME280;15877;52.344;16.790;2023-02-01T05:34:18;99740.45;;;6.23;71.04
28701;BME280;15877;52.344;16.790;2023-02-01T05:36:51;99744.20;;;6.25;70.84
28701;BME280;15877;52.344;16.790;2023-02-01T05:39:23;99753.88;;;6.18;70.62
28701;BME280;15877;52.344;16.790;2023-02-01T05:41:56;99747.05;;;6.17;70.94
28701;BME280;15877;52.344;16.790;2023-02-01T05:44:29;99749.27;;;6.26;70.72
28701;BME280;15877;52.344;16.790;2023-02-01T05:47:01;99745.27;;;6.12;71.06
28701;BME280;15877;52.344;16.790;2023-02-01T05:49:34;99745.50;;;6.20;71.24
28701;BME280;15877;52.344;16.790;2023-02-01T05:52:07;99748.08;;;6.17;71.08
28701;BME280;15877;52.344;16.790;2023-02-01T05:54:39;99751.39;;;6.31;70.82
28701;BME280;15877;52.344;16.790;2023-02-01T05:57:11;99750.11;;;6.19;71.22
28701;BME280;15877;52.344;16.790;2023-02-01T05:59:44;99746.08;;;6.19;71.41
28701;BME280;15877;52.344;16.790;2023-02-01T06:02:16;99749.70;;;5.99;71.97
28701;BME280;15877;52.344;16.790;2023-02-01T06:04:50;99754.40;;;5.78;72.89
28701;BME280;15877;52.344;16.790;2023-02-01T06:07:22;99759.45;;;5.68;73.57
28701;BME280;15877;52.344;16.790;2023-02-01T06:09:54;99760.05;;;5.82;73.52
28701;BME280;15877;52.344;16.790;2023-02-01T06:12:27;99759.10;;;5.85;73.50
28701;BME280;15877;52.344;16.790;2023-02-01T06:15:00;99757.22;;;5.67;74.04
28701;BME280;15877;52.344;16.790;2023-02-01T06:17:32;99745.23;;;5.64;74.20
28701;BME280;15877;52.344;16.790;2023-02-01T06:20:06;99758.58;;;5.76;74.23
28701;BME280;15877;52.344;16.790;2023-02-01T06:22:41;99756.16;;;5.69;74.51
28701;BME280;15877;52.344;16.790;2023-02-01T06:25:14;99743.69;;;5.47;75.31
28701;BME280;15877;52.344;16.790;2023-02-01T06:27:47;99755.96;;;5.70;75.30
28701;BME280;15877;52.344;16.790;2023-02-01T06:30:20;99759.82;;;5.55;75.61
28701;BME280;15877;52.344;16.790;2023-02-01T06:32:54;99759.13;;;5.50;75.93
28701;BME280;15877;52.344;16.790;2023-02-01T06:35:26;99756.20;;;5.38;76.60
28701;BME280;15877;52.344;16.790;2023-02-01T06:37:59;99760.71;;;5.53;76.15
28701;BME280;15877;52.344;16.790;2023-02-01T06:40:31;99759.96;;;5.60;75.81
28701;BME280;15877;52.344;16.790;2023-02-01T06:43:04;99762.52;;;5.53;75.84
28701;BME280;15877;52.344;16.790;2023-02-01T06:45:36;99746.59;;;5.39;76.17
28701;BME280;15877;52.344;16.790;2023-02-01T06:48:09;99764.98;;;5.49;76.35
28701;BME280;15877;52.344;16.790;2023-02-01T06:50:42;99766.12;;;5.45;76.57
28701;BME280;15877;52.344;16.790;2023-02-01T06:53:14;99762.48;;;5.64;76.25
28701;BME280;15877;52.344;16.790;2023-02-01T06:55:54;99766.59;;;5.62;76.20
28701;BME280;15877;52.344;16.790;2023-02-01T06:58:29;99768.54;;;5.72;76.42
28701;BME280;15877;52.344;16.790;2023-02-01T07:01:07;99768.39;;;5.60;76.54
28701;BME280;15877;52.344;16.790;2023-02-01T07:03:40;99763.76;;;5.47;77.42
28701;BME280;15877;52.344;16.790;2023-02-01T07:06:13;99762.64;;;5.57;77.40
28701;BME280;15877;52.344;16.790;2023-02-01T07:08:45;99768.02;;;5.57;77.26
28701;BME280;15877;52.344;16.790;2023-02-01T07:11:18;99742.58;;;5.42;77.85
28701;BME280;15877;52.344;16.790;2023-02-01T07:13:51;99766.15;;;5.66;77.92
28701;BME280;15877;52.344;16.790;2023-02-01T07:16:24;99763.69;;;5.52;78.92
28701;BME280;15877;52.344;16.790;2023-02-01T07:18:57;99766.50;;;5.47;79.23
28701;BME280;15877;52.344;16.790;2023-02-01T07:21:30;99769.22;;;5.61;78.91
28701;BME280;15877;52.344;16.790;2023-02-01T07:24:03;99766.70;;;5.58;78.88
28701;BME280;15877;52.344;16.790;2023-02-01T07:26:36;99771.39;;;5.57;78.67
28701;BME280;15877;52.344;16.790;2023-02-01T07:29:08;99775.87;;;5.67;78.03
28701;BME280;15877;52.344;16.790;2023-02-01T07:31:41;99778.23;;;5.65;78.10
28701;BME280;15877;52.344;16.790;2023-02-01T07:34:15;99777.63;;;5.70;77.92
28701;BME280;15877;52.344;16.790;2023-02-01T07:36:47;99777.56;;;5.76;77.50
28701;BME280;15877;52.344;16.790;2023-02-01T07:39:23;99776.34;;;5.77;77.52
28701;BME280;15877;52.344;16.790;2023-02-01T07:41:55;99777.63;;;5.90;77.24
28701;BME280;15877;52.344;16.790;2023-02-01T07:44:28;99759.96;;;5.92;76.66
28701;BME280;15877;52.344;16.790;2023-02-01T07:47:06;99771.05;;;5.79;76.91
28701;BME280;15877;52.344;16.790;2023-02-01T07:49:40;99772.52;;;5.98;76.49
28701;BME280;15877;52.344;16.790;2023-02-01T07:52:17;99769.70;;;5.93;76.39
28701;BME280;15877;52.344;16.790;2023-02-01T07:54:50;99772.98;;;5.73;76.66
28701;BME280;15877;52.344;16.790;2023-02-01T07:57:22;99756.45;;;5.80;76.62
28701;BME280;15877;52.344;16.790;2023-02-01T07:59:55;99773.53;;;5.90;76.47
28701;BME280;15877;52.344;16.790;2023-02-01T08:02:45;99764.70;;;5.92;75.82
28701;BME280;15877;52.344;16.790;2023-02-01T08:05:18;99770.67;;;6.00;75.72
28701;BME280;15877;52.344;16.790;2023-02-01T08:07:51;99768.91;;;6.02;75.73
28701;BME280;15877;52.344;16.790;2023-02-01T08:10:24;99771.15;;;6.02;75.77
28701;BME280;15877;52.344;16.790;2023-02-01T08:13:00;99767.13;;;6.27;75.26
28701;BME280;15877;52.344;16.790;2023-02-01T08:15:33;99759.79;;;6.30;74.78
28701;BME280;15877;52.344;16.790;2023-02-01T08:18:06;99754.95;;;6.15;74.80
28701;BME280;15877;52.344;16.790;2023-02-01T08:20:39;99762.17;;;6.02;75.48
28701;BME280;15877;52.344;16.790;2023-02-01T08:23:14;99755.63;;;6.22;75.10
28701;BME280;15877;52.344;16.790;2023-02-01T08:25:47;99751.45;;;6.31;74.55
28701;BME280;15877;52.344;16.790;2023-02-01T08:28:19;99733.82;;;6.22;74.79
28701;BME280;15877;52.344;16.790;2023-02-01T08:30:52;99717.45;;;6.32;74.37
28701;BME280;15877;52.344;16.790;2023-02-01T08:33:24;99738.55;;;6.51;74.00
28701;BME280;15877;52.344;16.790;2023-02-01T08:35:56;99736.46;;;6.53;74.47
28701;BME280;15877;52.344;16.790;2023-02-01T08:38:29;99738.39;;;6.75;73.57
28701;BME280;15877;52.344;16.790;2023-02-01T08:41:07;99736.66;;;6.72;73.22
28701;BME280;15877;52.344;16.790;2023-02-01T08:43:40;99736.38;;;6.52;73.97
28701;BME280;15877;52.344;16.790;2023-02-01T08:46:14;99736.14;;;6.56;74.08
28701;BME280;15877;52.344;16.790;2023-02-01T08:48:48;99729.64;;;6.57;73.94
28701;BME280;15877;52.344;16.790;2023-02-01T08:51:22;99727.64;;;6.53;74.21
28701;BME280;15877;52.344;16.790;2023-02-01T08:53:54;99728.75;;;6.44;74.56
28701;BME280;15877;52.344;16.790;2023-02-01T08:56:27;99726.22;;;6.47;74.56
28701;BME280;15877;52.344;16.790;2023-02-01T08:58:59;99726.77;;;6.44;74.78
28701;BME280;15877;52.344;16.790;2023-02-01T09:01:32;99734.85;;;6.31;75.43
28701;BME280;15877;52.344;16.790;2023-02-01T09:04:04;99731.73;;;6.38;75.37
28701;BME280;15877;52.344;16.790;2023-02-01T09:06:37;99735.48;;;6.52;75.53
28701;BME280;15877;52.344;16.790;2023-02-01T09:09:12;99744.08;;;6.78;75.09
28701;BME280;15877;52.344;16.790;2023-02-01T09:11:44;99748.42;;;6.75;75.16
28701;BME280;15877;52.344;16.790;2023-02-01T09:14:17;99746.92;;;6.54;76.86
28701;BME280;15877;52.344;16.790;2023-02-01T09:16:50;99757.96;;;6.55;76.61
28701;BME280;15877;52.344;16.790;2023-02-01T09:19:23;99747.00;;;6.75;76.25
28701;BME280;15877;52.344;16.790;2023-02-01T09:21:57;99745.95;;;6.71;76.25
28701;BME280;15877;52.344;16.790;2023-02-01T09:24:30;99742.75;;;6.52;77.24
28701;BME280;15877;52.344;16.790;2023-02-01T09:27:03;99746.20;;;6.54;77.27
28701;BME280;15877;52.344;16.790;2023-02-01T09:29:36;99751.09;;;6.34;77.82
28701;BME280;15877;52.344;16.790;2023-02-01T09:32:11;99741.53;;;6.22;78.66
28701;BME280;15877;52.344;16.790;2023-02-01T09:34:43;99740.22;;;6.09;79.41
28701;BME280;15877;52.344;16.790;2023-02-01T09:37:16;99742.33;;;6.14;80.00
28701;BME280;15877;52.344;16.790;2023-02-01T09:39:54;99739.41;;;6.13;80.01
28701;BME280;15877;52.344;16.790;2023-02-01T09:42:52;99740.30;;;6.04;80.75
28701;BME280;15877;52.344;16.790;2023-02-01T09:45:32;99740.13;;;5.93;81.02
28701;BME280;15877;52.344;16.790;2023-02-01T09:48:12;99722.24;;;5.87;81.31
28701;BME280;15877;52.344;16.790;2023-02-01T09:50:50;99731.42;;;5.94;81.63
28701;BME280;15877;52.344;16.790;2023-02-01T09:53:27;99736.86;;;5.84;82.01
28701;BME280;15877;52.344;16.790;2023-02-01T09:56:05;99733.38;;;5.83;82.84
28701;BME280;15877;52.344;16.790;2023-02-01T09:58:40;99733.45;;;5.93;82.84
28701;BME280;15877;52.344;16.790;2023-02-01T10:01:18;99728.88;;;5.88;82.67
28701;BME280;15877;52.344;16.790;2023-02-01T10:03:54;99728.36;;;5.83;83.12
28701;BME280;15877;52.344;16.790;2023-02-01T10:06:40;99725.61;;;5.92;83.03
28701;BME280;15877;52.344;16.790;2023-02-01T10:09:37;99692.17;;;5.61;83.56
28701;BME280;15877;52.344;16.790;2023-02-01T10:12:33;99722.47;;;5.87;83.33
28701;BME280;15877;52.344;16.790;2023-02-01T10:15:21;99720.84;;;5.93;83.32
28701;BME280;15877;52.344;16.790;2023-02-01T10:18:27;99721.62;;;5.79;83.90
28701;BME280;15877;52.344;16.790;2023-02-01T10:21:13;99718.35;;;5.88;83.93
28701;BME280;15877;52.344;16.790;2023-02-01T10:24:02;99718.41;;;5.80;84.31
28701;BME280;15877;52.344;16.790;2023-02-01T10:26:54;99718.91;;;5.79;84.21
28701;BME280;15877;52.344;16.790;2023-02-01T10:29:33;99710.85;;;5.93;83.69
28701;BME280;15877;52.344;16.790;2023-02-01T10:32:13;99710.52;;;5.95;83.54
28701;BME280;15877;52.344;16.790;2023-02-01T10:34:50;99674.60;;;5.66;83.41
28701;BME280;15877;52.344;16.790;2023-02-01T10:37:29;99701.19;;;5.70;83.85
28701;BME280;15877;52.344;16.790;2023-02-01T10:40:15;99701.30;;;5.84;83.52
28701;BME280;15877;52.344;16.790;2023-02-01T10:42:48;99703.49;;;5.87;83.00
28701;BME280;15877;52.344;16.790;2023-02-01T10:45:27;99700.40;;;5.84;83.18
28701;BME280;15877;52.344;16.790;2023-02-01T10:48:01;99701.32;;;5.93;83.22
28701;BME280;15877;52.344;16.790;2023-02-01T10:50:38;99696.30;;;5.70;84.37
28701;BME280;15877;52.344;16.790;2023-02-01T10:53:17;99701.48;;;5.78;84.78
28701;BME280;15877;52.344;16.790;2023-02-01T10:55:51;99697.02;;;5.73;85.04
28701;BME280;15877;52.344;16.790;2023-02-01T10:58:29;99694.44;;;5.79;85.29
28701;BME280;15877;52.344;16.790;2023-02-01T11:01:04;99697.13;;;5.77;85.58
28701;BME280;15877;52.344;16.790;2023-02-01T11:03:53;99691.23;;;5.90;84.83
28701;BME280;15877;52.344;16.790;2023-02-01T11:06:33;99690.09;;;5.76;85.24
28701;BME280;15877;52.344;16.790;2023-02-01T11:09:18;99689.35;;;5.85;85.23
28701;BME280;15877;52.344;16.790;2023-02-01T11:12:00;99677.76;;;6.24;83.13
28701;BME280;15877;52.344;16.790;2023-02-01T11:14:39;99683.79;;;6.37;82.11
28701;BME280;15877;52.344;16.790;2023-02-01T11:17:28;99677.79;;;6.52;81.57
28701;BME280;15877;52.344;16.790;2023-02-01T11:20:03;99672.48;;;6.19;83.18
28701;BME280;15877;52.344;16.790;2023-02-01T11:22:37;99671.21;;;5.98;83.97
28701;BME280;15877;52.344;16.790;2023-02-01T11:25:13;99668.10;;;6.11;84.00
28701;BME280;15877;52.344;16.790;2023-02-01T11:27:46;99665.90;;;6.05;83.76
28701;BME280;15877;52.344;16.790;2023-02-01T11:30:33;99667.39;;;6.19;83.53
28701;BME280;15877;52.344;16.790;2023-02-01T11:33:08;99665.23;;;6.33;82.78
28701;BME280;15877;52.344;16.790;2023-02-01T11:35:45;99665.38;;;6.45;81.75
28701;BME280;15877;52.344;16.790;2023-02-01T11:38:26;99661.27;;;6.18;82.58
28701;BME280;15877;52.344;16.790;2023-02-01T11:41:13;99657.64;;;6.23;82.93
28701;BME280;15877;52.344;16.790;2023-02-01T11:43:57;99656.41;;;6.39;81.71
28701;BME280;15877;52.344;16.790;2023-02-01T11:46:32;99655.55;;;6.22;82.86
28701;BME280;15877;52.344;16.790;2023-02-01T11:49:21;99652.66;;;6.34;83.10
28701;BME280;15877;52.344;16.790;2023-02-01T11:52:07;99650.23;;;6.32;82.91
28701;BME280;15877;52.344;16.790;2023-02-01T11:54:57;99650.81;;;6.27;83.39
28701;BME280;15877;52.344;16.790;2023-02-01T11:57:47;99651.19;;;6.35;82.77
28701;BME280;15877;52.344;16.790;2023-02-01T12:00:48;99650.30;;;6.44;82.60
28701;BME280;15877;52.344;16.790;2023-02-01T12:04:01;99652.19;;;6.56;81.77
28701;BME280;15877;52.344;16.790;2023-02-01T12:06:45;99651.10;;;6.29;82.78
28701;BME280;15877;52.344;16.790;2023-02-01T12:09:31;99649.92;;;6.38;83.11
28701;BME280;15877;52.344;16.790;2023-02-01T12:12:17;99663.76;;;6.43;82.63
28701;BME280;15877;52.344;16.790;2023-02-01T12:15:20;99659.13;;;6.38;82.51
28701;BME280;15877;52.344;16.790;2023-02-01T12:18:18;99654.02;;;6.51;82.15
28701;BME280;15877;52.344;16.790;2023-02-01T12:21:06;99655.70;;;6.33;82.87
28701;BME280;15877;52.344;16.790;2023-02-01T12:24:05;99664.86;;;6.37;82.51
28701;BME280;15877;52.344;16.790;2023-02-01T12:26:52;99660.69;;;6.46;82.18
28701;BME280;15877;52.344;16.790;2023-02-01T12:32:51;99660.86;;;6.44;81.92
28701;BME280;15877;52.344;16.790;2023-02-01T12:35:49;99659.13;;;6.38;81.96
28701;BME280;15877;52.344;16.790;2023-02-01T12:38:35;99652.55;;;6.36;81.70
28701;BME280;15877;52.344;16.790;2023-02-01T12:41:22;99650.48;;;6.30;82.20
28701;BME280;15877;52.344;16.790;2023-02-01T12:44:01;99650.75;;;6.34;82.10
28701;BME280;15877;52.344;16.790;2023-02-01T12:46:41;99653.98;;;6.42;81.55
28701;BME280;15877;52.344;16.790;2023-02-01T12:49:17;99657.09;;;6.41;81.26
28701;BME280;15877;52.344;16.790;2023-02-01T12:51:54;99651.20;;;6.39;81.17
28701;BME280;15877;52.344;16.790;2023-02-01T12:54:34;99656.05;;;6.47;81.09
28701;BME280;15877;52.344;16.790;2023-02-01T12:57:12;99638.91;;;6.36;80.10
28701;BME280;15877;52.344;16.790;2023-02-01T12:59:51;99648.60;;;6.52;79.88
28701;BME280;15877;52.344;16.790;2023-02-01T13:02:33;99658.49;;;6.46;80.15
28701;BME280;15877;52.344;16.790;2023-02-01T13:05:17;99663.88;;;6.44;79.99
28701;BME280;15877;52.344;16.790;2023-02-01T13:07:56;99671.48;;;6.46;79.81
28701;BME280;15877;52.344;16.790;2023-02-01T13:10:35;99665.23;;;6.45;79.67
28701;BME280;15877;52.344;16.790;2023-02-01T13:13:14;99666.91;;;6.49;79.10
28701;BME280;15877;52.344;16.790;2023-02-01T13:15:51;99671.77;;;6.51;78.94
28701;BME280;15877;52.344;16.790;2023-02-01T13:18:34;99672.63;;;6.60;78.19
28701;BME280;15877;52.344;16.790;2023-02-01T13:21:10;99670.56;;;6.56;77.79
28701;BME280;15877;52.344;16.790;2023-02-01T13:23:48;99669.17;;;6.54;78.33
28701;BME280;15877;52.344;16.790;2023-02-01T13:26:21;99671.04;;;6.56;78.14
28701;BME280;15877;52.344;16.790;2023-02-01T13:28:56;99674.53;;;6.66;77.63
28701;BME280;15877;52.344;16.790;2023-02-01T13:31:44;99666.96;;;6.63;77.64
28701;BME280;15877;52.344;16.790;2023-02-01T13:34:38;99672.61;;;6.50;78.36
28701;BME280;15877;52.344;16.790;2023-02-01T13:37:23;99663.86;;;6.69;77.29
28701;BME280;15877;52.344;16.790;2023-02-01T13:40:16;99670.52;;;6.67;76.97
28701;BME280;15877;52.344;16.790;2023-02-01T13:42:52;99669.12;;;6.67;76.85
28701;BME280;15877;52.344;16.790;2023-02-01T13:45:28;99667.69;;;6.89;76.71
28701;BME280;15877;52.344;16.790;2023-02-01T13:48:06;99668.98;;;6.87;75.93
28701;BME280;15877;52.344;16.790;2023-02-01T13:50:52;99666.39;;;6.88;75.39
28701;BME280;15877;52.344;16.790;2023-02-01T13:53:29;99663.98;;;6.95;74.77
28701;BME280;15877;52.344;16.790;2023-02-01T13:56:04;99670.95;;;6.84;74.69
28701;BME280;15877;52.344;16.790;2023-02-01T13:58:40;99675.45;;;6.84;74.18